createdAt,value
2017-01-03T00:00:23.091Z,1013.69
2017-01-03T00:01:03.631Z,1013.75
2017-01-03T00:01:44.006Z,1013.71
2017-01-03T00:02:24.594Z,1013.71
2017-01-03T00:03:05.150Z,1013.71
2017-01-03T00:03:45.630Z,1013.71
2017-01-03T00:04:26.122Z,1013.68
2017-01-03T00:05:06.578Z,1013.68
2017-01-03T00:05:47.058Z,1013.66
2017-01-03T00:06:27.560Z,1013.66
2017-01-03T00:07:08.034Z,1013.67
2017-01-03T00:07:48.531Z,1013.69
2017-01-03T00:08:29.064Z,1013.67
2017-01-03T00:09:09.475Z,1013.68
2017-01-03T00:09:49.925Z,1013.71
2017-01-03T00:10:30.452Z,1013.73
2017-01-03T00:11:11.636Z,1013.75
2017-01-03T00:11:51.500Z,1013.74
2017-01-03T00:12:32.013Z,1013.7
2017-01-03T00:13:12.495Z,1013.7
2017-01-03T00:13:52.999Z,1013.74
2017-01-03T00:14:33.539Z,1013.68
2017-01-03T00:15:13.973Z,1013.74
2017-01-03T00:15:54.484Z,1013.75
2017-01-03T00:16:34.996Z,1013.73
2017-01-03T00:17:15.444Z,1013.75
2017-01-03T00:17:55.875Z,1013.74
2017-01-03T00:18:36.371Z,1013.78
2017-01-03T00:19:16.809Z,1013.78
2017-01-03T00:19:57.266Z,1013.79
2017-01-03T00:20:37.739Z,1013.82
2017-01-03T00:21:18.252Z,1013.85
2017-01-03T00:21:58.794Z,1013.86
2017-01-03T00:22:39.265Z,1013.86
2017-01-03T00:23:19.814Z,1013.84
2017-01-03T00:24:00.305Z,1013.83
2017-01-03T00:24:40.827Z,1013.83
2017-01-03T00:25:21.224Z,1013.8
2017-01-03T00:26:01.726Z,1013.77
2017-01-03T00:26:42.223Z,1013.77
2017-01-03T00:27:22.693Z,1013.82
2017-01-03T00:28:03.251Z,1013.76
2017-01-03T00:28:43.671Z,1013.81
2017-01-03T00:29:24.129Z,1013.81
2017-01-03T00:30:04.751Z,1013.79
2017-01-03T00:30:45.219Z,1013.8
2017-01-03T00:31:25.712Z,1013.86
2017-01-03T00:32:06.172Z,1013.83
2017-01-03T00:32:46.701Z,1013.8
2017-01-03T00:35:16.075Z,1013.95
2017-01-03T00:35:56.607Z,1013.92
2017-01-03T00:36:37.093Z,1013.93
2017-01-03T00:37:17.571Z,1013.96
2017-01-03T00:37:58.099Z,1014.01
2017-01-03T00:38:38.539Z,1013.95
2017-01-03T00:39:19.055Z,1013.96
2017-01-03T00:39:59.533Z,1013.95
2017-01-03T00:40:39.999Z,1014
2017-01-03T00:41:20.475Z,1013.96
2017-01-03T00:42:00.992Z,1013.97
2017-01-03T00:42:41.434Z,1013.98
2017-01-03T00:43:21.892Z,1013.98
2017-01-03T00:44:02.484Z,1013.97
2017-01-03T00:44:42.983Z,1013.97
2017-01-03T00:45:23.570Z,1013.98
2017-01-03T00:46:04.002Z,1013.96
2017-01-03T00:46:44.509Z,1013.98
2017-01-03T00:47:25.133Z,1013.96
2017-01-03T00:48:05.620Z,1014.02
2017-01-03T00:48:46.115Z,1013.97
2017-01-03T00:49:26.630Z,1013.98
2017-01-03T00:50:07.137Z,1013.99
2017-01-03T00:50:53.902Z,1013.99
2017-01-03T00:51:34.464Z,1013.96
2017-01-03T00:52:14.926Z,1013.99
2017-01-03T00:52:55.471Z,1014.01
2017-01-03T00:53:35.921Z,1013.99
2017-01-03T00:54:16.442Z,1013.94
2017-01-03T00:54:56.973Z,1014.02
2017-01-03T00:55:37.403Z,1014
2017-01-03T00:56:17.863Z,1014.01
2017-01-03T00:56:58.328Z,1013.96
2017-01-03T00:57:38.813Z,1013.96
2017-01-03T00:58:19.403Z,1013.95
2017-01-03T00:58:59.838Z,1013.98
2017-01-03T00:59:40.384Z,1013.9
2017-01-03T01:00:20.852Z,1013.97
2017-01-03T01:01:01.336Z,1013.95
2017-01-03T01:01:41.787Z,1013.91
2017-01-03T01:02:22.337Z,1013.93
2017-01-03T01:03:02.809Z,1013.94
2017-01-03T01:03:43.343Z,1013.93
2017-01-03T01:04:23.865Z,1013.96
2017-01-03T01:05:04.337Z,1013.96
2017-01-03T01:05:44.946Z,1013.89
2017-01-03T01:06:25.394Z,1013.96
2017-01-03T01:07:05.905Z,1013.93
2017-01-03T01:07:46.380Z,1013.92
2017-01-03T01:08:26.833Z,1013.87
2017-01-03T01:09:07.300Z,1013.9
2017-01-03T01:09:47.834Z,1013.89
2017-01-03T01:10:28.273Z,1013.88
2017-01-03T01:11:08.753Z,1013.86
2017-01-03T01:11:49.225Z,1013.89
2017-01-03T01:12:29.700Z,1013.88
2017-01-03T01:13:10.180Z,1013.86
2017-01-03T01:13:50.732Z,1013.88
2017-01-03T01:14:31.198Z,1013.84
2017-01-03T01:15:11.751Z,1013.85
2017-01-03T01:15:52.171Z,1013.83
2017-01-03T01:16:32.736Z,1013.82
2017-01-03T01:17:13.198Z,1013.81
2017-01-03T01:17:53.726Z,1013.84
2017-01-03T01:18:34.166Z,1013.87
2017-01-03T01:19:14.674Z,1013.83
2017-01-03T01:19:55.175Z,1013.81
2017-01-03T01:20:35.657Z,1013.84
2017-01-03T01:21:16.161Z,1013.85
2017-01-03T01:21:56.562Z,1013.9
2017-01-03T01:22:37.080Z,1013.92
2017-01-03T01:23:17.581Z,1013.9
2017-01-03T01:23:58.059Z,1013.9
2017-01-03T01:24:38.598Z,1013.95
2017-01-03T01:25:19.055Z,1013.95
2017-01-03T01:25:59.548Z,1013.97
2017-01-03T01:26:40.059Z,1013.94
2017-01-03T01:27:20.534Z,1013.99
2017-01-03T01:28:01.009Z,1014.03
2017-01-03T01:28:41.539Z,1014.03
2017-01-03T01:29:21.969Z,1014.01
2017-01-03T01:30:02.487Z,1014.06
2017-01-03T01:30:42.975Z,1014.1
2017-01-03T01:31:23.482Z,1014.12
2017-01-03T01:32:03.959Z,1014.11
2017-01-03T01:32:44.474Z,1014.13
2017-01-03T01:33:24.933Z,1014.08
2017-01-03T01:34:05.481Z,1014.14
2017-01-03T01:34:45.993Z,1014.14
2017-01-03T01:35:26.477Z,1014.21
2017-01-03T01:36:06.958Z,1014.15
2017-01-03T01:36:47.449Z,1014.21
2017-01-03T01:37:27.972Z,1014.2
2017-01-03T01:38:08.420Z,1014.25
2017-01-03T01:38:48.909Z,1014.19
2017-01-03T01:39:29.433Z,1014.26
2017-01-03T01:40:09.925Z,1014.25
2017-01-03T01:40:50.404Z,1014.2
2017-01-03T01:41:30.874Z,1014.16
2017-01-03T01:42:11.385Z,1014.23
2017-01-03T01:42:51.849Z,1014.24
2017-01-03T01:43:32.273Z,1014.19
2017-01-03T01:44:12.802Z,1014.22
2017-01-03T01:44:53.271Z,1014.19
2017-01-03T01:45:33.799Z,1014.19
2017-01-03T01:46:14.213Z,1014.23
2017-01-03T01:46:54.734Z,1014.23
2017-01-03T01:47:35.285Z,1014.2
2017-01-03T01:48:15.727Z,1014.26
2017-01-03T01:48:56.202Z,1014.28
2017-01-03T01:49:36.712Z,1014.23
2017-01-03T01:50:17.192Z,1014.23
2017-01-03T01:50:57.676Z,1014.31
2017-01-03T01:51:38.159Z,1014.29
2017-01-03T01:52:18.586Z,1014.28
2017-01-03T01:52:59.093Z,1014.28
2017-01-03T01:53:39.576Z,1014.3
2017-01-03T01:54:20.094Z,1014.32
2017-01-03T01:55:00.631Z,1014.3
2017-01-03T01:55:41.075Z,1014.32
2017-01-03T01:56:21.604Z,1014.3
2017-01-03T01:57:02.068Z,1014.34
2017-01-03T01:57:42.554Z,1014.34
2017-01-03T01:58:23.055Z,1014.32
2017-01-03T01:59:03.554Z,1014.34
2017-01-03T01:59:44.081Z,1014.34
2017-01-03T02:00:24.561Z,1014.33
2017-01-03T02:01:05.085Z,1014.32
2017-01-03T02:01:45.603Z,1014.34
2017-01-03T02:02:26.069Z,1014.32
2017-01-03T02:03:06.536Z,1014.36
2017-01-03T02:03:46.998Z,1014.32
2017-01-03T02:04:27.499Z,1014.33
2017-01-03T02:05:07.991Z,1014.35
2017-01-03T02:05:48.510Z,1014.35
2017-01-03T02:06:28.975Z,1014.34
2017-01-03T02:07:09.476Z,1014.35
2017-01-03T02:07:49.973Z,1014.34
2017-01-03T02:08:30.456Z,1014.33
2017-01-03T02:09:10.945Z,1014.35
2017-01-03T02:09:51.403Z,1014.35
2017-01-03T02:10:31.921Z,1014.35
2017-01-03T02:11:12.395Z,1014.39
2017-01-03T02:11:52.896Z,1014.38
2017-01-03T02:12:33.381Z,1014.38
2017-01-03T02:13:13.943Z,1014.39
2017-01-03T02:13:54.386Z,1014.36
2017-01-03T02:14:34.859Z,1014.4
2017-01-03T02:15:15.347Z,1014.4
2017-01-03T02:15:55.887Z,1014.38
2017-01-03T02:16:36.453Z,1014.41
2017-01-03T02:17:16.895Z,1014.46
2017-01-03T02:17:57.451Z,1014.45
2017-01-03T02:18:37.871Z,1014.46
2017-01-03T02:19:18.363Z,1014.47
2017-01-03T02:19:58.859Z,1014.51
2017-01-03T02:20:39.357Z,1014.49
2017-01-03T02:21:19.835Z,1014.45
2017-01-03T02:22:00.335Z,1014.49
2017-01-03T02:22:40.820Z,1014.43
2017-01-03T02:23:21.375Z,1014.48
2017-01-03T02:24:01.858Z,1014.46
2017-01-03T02:24:42.364Z,1014.45
2017-01-03T02:25:22.822Z,1014.45
2017-01-03T02:26:03.359Z,1014.42
2017-01-03T02:26:43.868Z,1014.43
2017-01-03T02:27:24.330Z,1014.5
2017-01-03T02:28:04.812Z,1014.46
2017-01-03T02:28:45.329Z,1014.43
2017-01-03T02:29:25.751Z,1014.44
2017-01-03T02:30:06.263Z,1014.44
2017-01-03T02:30:48.548Z,1014.44
2017-01-03T02:31:29.004Z,1014.49
2017-01-03T02:32:09.492Z,1014.49
2017-01-03T02:32:49.994Z,1014.43
2017-01-03T02:33:30.511Z,1014.45
2017-01-03T02:34:10.953Z,1014.47
2017-01-03T02:34:51.459Z,1014.47
2017-01-03T02:35:31.996Z,1014.49
2017-01-03T02:36:12.501Z,1014.52
2017-01-03T02:36:52.943Z,1014.49
2017-01-03T02:37:33.493Z,1014.48
2017-01-03T02:38:14.009Z,1014.44
2017-01-03T02:38:54.459Z,1014.45
2017-01-03T02:39:34.957Z,1014.41
2017-01-03T02:40:15.455Z,1014.46
2017-01-03T02:40:55.955Z,1014.46
2017-01-03T02:41:36.439Z,1014.42
2017-01-03T02:42:16.920Z,1014.41
2017-01-03T02:42:57.635Z,1014.42
2017-01-03T02:43:38.087Z,1014.39
2017-01-03T02:44:18.590Z,1014.4
2017-01-03T02:44:59.109Z,1014.4
2017-01-03T02:45:39.534Z,1014.39
2017-01-03T02:46:20.030Z,1014.4
2017-01-03T02:47:00.512Z,1014.38
2017-01-03T02:47:41.007Z,1014.35
2017-01-03T02:48:21.471Z,1014.38
2017-01-03T02:49:01.974Z,1014.38
2017-01-03T02:49:42.479Z,1014.34
2017-01-03T02:50:22.990Z,1014.33
2017-01-03T02:51:03.458Z,1014.36
2017-01-03T02:51:43.903Z,1014.3
2017-01-03T02:52:24.389Z,1014.3
2017-01-03T02:53:04.882Z,1014.32
2017-01-03T02:53:45.349Z,1014.32
2017-01-03T02:54:25.851Z,1014.32
2017-01-03T02:55:06.346Z,1014.36
2017-01-03T02:55:46.806Z,1014.36
2017-01-03T02:56:27.309Z,1014.37
2017-01-03T02:57:07.766Z,1014.36
2017-01-03T02:57:48.343Z,1014.4
2017-01-03T02:58:29.741Z,1014.37
2017-01-03T02:59:10.240Z,1014.41
2017-01-03T02:59:50.705Z,1014.4
2017-01-03T03:00:31.220Z,1014.42
2017-01-03T03:01:11.708Z,1014.39
2017-01-03T03:01:52.125Z,1014.37
2017-01-03T03:02:32.629Z,1014.38
2017-01-03T03:03:13.183Z,1014.42
2017-01-03T03:03:53.678Z,1014.36
2017-01-03T03:04:34.224Z,1014.41
2017-01-03T03:05:14.705Z,1014.36
2017-01-03T03:05:55.187Z,1014.32
2017-01-03T03:06:35.664Z,1014.37
2017-01-03T03:07:16.162Z,1014.35
2017-01-03T03:07:56.643Z,1014.4
2017-01-03T03:08:37.118Z,1014.32
2017-01-03T03:09:17.633Z,1014.38
2017-01-03T03:09:58.106Z,1014.36
2017-01-03T03:10:38.614Z,1014.35
2017-01-03T03:11:19.078Z,1014.29
2017-01-03T03:11:59.616Z,1014.34
2017-01-03T03:12:40.153Z,1014.33
2017-01-03T03:13:20.650Z,1014.32
2017-01-03T03:14:01.199Z,1014.36
2017-01-03T03:14:41.618Z,1014.34
2017-01-03T03:15:22.130Z,1014.32
2017-01-03T03:16:02.631Z,1014.3
2017-01-03T03:16:43.067Z,1014.25
2017-01-03T03:17:23.656Z,1014.33
2017-01-03T03:18:04.107Z,1014.35
2017-01-03T03:18:44.598Z,1014.32
2017-01-03T03:19:25.070Z,1014.33
2017-01-03T03:20:05.603Z,1014.33
2017-01-03T03:20:46.106Z,1014.34
2017-01-03T03:21:26.561Z,1014.36
2017-01-03T03:22:07.083Z,1014.35
2017-01-03T03:22:47.542Z,1014.39
2017-01-03T03:23:27.999Z,1014.35
2017-01-03T03:24:08.501Z,1014.36
2017-01-03T03:24:49.001Z,1014.38
2017-01-03T03:25:29.677Z,1014.38
2017-01-03T03:26:10.202Z,1014.35
2017-01-03T03:26:50.680Z,1014.33
2017-01-03T03:27:31.100Z,1014.32
2017-01-03T03:28:11.659Z,1014.29
2017-01-03T03:28:52.129Z,1014.25
2017-01-03T03:29:32.647Z,1014.26
2017-01-03T03:30:13.138Z,1014.28
2017-01-03T03:30:53.611Z,1014.28
2017-01-03T03:31:34.091Z,1014.27
2017-01-03T03:32:14.648Z,1014.31
2017-01-03T03:32:55.135Z,1014.31
2017-01-03T03:33:35.600Z,1014.36
2017-01-03T03:34:16.090Z,1014.38
2017-01-03T03:34:56.567Z,1014.39
2017-01-03T03:35:37.071Z,1014.38
2017-01-03T03:36:17.591Z,1014.4
2017-01-03T03:36:58.079Z,1014.37
2017-01-03T03:37:38.615Z,1014.34
2017-01-03T03:38:19.050Z,1014.39
2017-01-03T03:38:59.557Z,1014.41
2017-01-03T03:39:40.075Z,1014.39
2017-01-03T03:40:20.526Z,1014.38
2017-01-03T03:41:01.013Z,1014.41
2017-01-03T03:41:41.489Z,1014.36
2017-01-03T03:42:22.028Z,1014.36
2017-01-03T03:43:02.513Z,1014.42
2017-01-03T03:43:43.083Z,1014.35
2017-01-03T03:44:23.543Z,1014.41
2017-01-03T03:45:04.082Z,1014.37
2017-01-03T03:45:44.524Z,1014.38
2017-01-03T03:46:25.033Z,1014.36
2017-01-03T03:47:05.481Z,1014.36
2017-01-03T03:47:46.011Z,1014.34
2017-01-03T03:48:26.524Z,1014.37
2017-01-03T03:49:07.016Z,1014.36
2017-01-03T03:49:47.516Z,1014.32
2017-01-03T03:50:28.009Z,1014.35
2017-01-03T03:51:08.462Z,1014.35
2017-01-03T03:51:48.987Z,1014.39
2017-01-03T03:52:29.458Z,1014.39
2017-01-03T03:53:09.987Z,1014.36
2017-01-03T03:53:50.441Z,1014.4
2017-01-03T03:54:30.982Z,1014.41
2017-01-03T03:55:11.399Z,1014.45
2017-01-03T03:55:51.937Z,1014.48
2017-01-03T03:56:32.404Z,1014.42
2017-01-03T03:57:12.919Z,1014.44
2017-01-03T03:57:53.442Z,1014.45
2017-01-03T03:58:33.954Z,1014.49
2017-01-03T03:59:14.403Z,1014.46
2017-01-03T03:59:54.975Z,1014.45
2017-01-03T04:00:35.452Z,1014.46
2017-01-03T04:03:03.988Z,1014.44
2017-01-03T04:03:44.489Z,1014.43
2017-01-03T04:04:24.989Z,1014.48
2017-01-03T04:05:05.524Z,1014.43
2017-01-03T04:05:46.088Z,1014.5
2017-01-03T04:06:26.630Z,1014.49
2017-01-03T04:07:07.125Z,1014.47
2017-01-03T04:07:47.597Z,1014.48
2017-01-03T04:08:28.104Z,1014.49
2017-01-03T04:09:08.579Z,1014.48
2017-01-03T04:09:49.080Z,1014.49
2017-01-03T04:10:29.539Z,1014.49
2017-01-03T04:11:10.056Z,1014.5
2017-01-03T04:11:50.577Z,1014.55
2017-01-03T04:12:31.081Z,1014.52
2017-01-03T04:13:11.683Z,1014.56
2017-01-03T04:13:52.169Z,1014.56
2017-01-03T04:14:32.619Z,1014.49
2017-01-03T04:15:13.125Z,1014.57
2017-01-03T04:15:53.583Z,1014.55
2017-01-03T04:16:34.098Z,1014.58
2017-01-03T04:17:14.805Z,1014.57
2017-01-03T04:17:55.281Z,1014.52
2017-01-03T04:18:35.722Z,1014.48
2017-01-03T04:19:16.267Z,1014.49
2017-01-03T04:19:56.762Z,1014.53
2017-01-03T04:20:37.296Z,1014.45
2017-01-03T04:21:17.766Z,1014.48
2017-01-03T04:21:58.243Z,1014.45
2017-01-03T04:22:38.729Z,1014.46
2017-01-03T04:23:19.202Z,1014.43
2017-01-03T04:23:59.712Z,1014.44
2017-01-03T04:24:40.157Z,1014.38
2017-01-03T04:25:20.651Z,1014.43
2017-01-03T04:26:01.179Z,1014.44
2017-01-03T04:26:41.843Z,1014.41
2017-01-03T04:27:22.376Z,1014.41
2017-01-03T04:28:02.864Z,1014.45
2017-01-03T04:28:43.296Z,1014.42
2017-01-03T04:29:23.776Z,1014.42
2017-01-03T04:30:04.278Z,1014.45
2017-01-03T04:30:44.792Z,1014.43
2017-01-03T04:32:42.933Z,1014.35
2017-01-03T04:33:23.435Z,1014.44
2017-01-03T04:34:03.927Z,1014.43
2017-01-03T04:34:44.465Z,1014.43
2017-01-03T04:35:24.936Z,1014.43
2017-01-03T04:36:05.500Z,1014.41
2017-01-03T04:36:46.098Z,1014.47
2017-01-03T04:37:26.536Z,1014.42
2017-01-03T04:38:07.045Z,1014.47
2017-01-03T04:38:47.520Z,1014.5
2017-01-03T04:39:28.005Z,1014.43
2017-01-03T04:40:08.475Z,1014.46
2017-01-03T04:40:48.982Z,1014.5
2017-01-03T04:41:29.431Z,1014.44
2017-01-03T04:42:09.924Z,1014.51
2017-01-03T04:42:50.432Z,1014.49
2017-01-03T04:43:30.947Z,1014.47
2017-01-03T04:44:11.451Z,1014.5
2017-01-03T04:44:51.943Z,1014.48
2017-01-03T04:45:32.428Z,1014.47
2017-01-03T04:46:12.915Z,1014.54
2017-01-03T04:46:53.442Z,1014.47
2017-01-03T04:47:33.930Z,1014.52
2017-01-03T04:48:14.387Z,1014.51
2017-01-03T04:48:54.902Z,1014.43
2017-01-03T04:49:35.409Z,1014.44
2017-01-03T04:50:15.935Z,1014.43
2017-01-03T04:50:56.401Z,1014.41
2017-01-03T04:51:36.893Z,1014.42
2017-01-03T04:52:17.395Z,1014.4
2017-01-03T04:52:57.873Z,1014.39
2017-01-03T04:53:38.402Z,1014.42
2017-01-03T04:54:18.865Z,1014.37
2017-01-03T04:54:59.365Z,1014.39
2017-01-03T04:55:39.875Z,1014.44
2017-01-03T04:56:20.385Z,1014.42
2017-01-03T04:57:00.823Z,1014.42
2017-01-03T04:57:41.399Z,1014.43
2017-01-03T04:58:21.870Z,1014.46
2017-01-03T04:59:02.363Z,1014.45
2017-01-03T04:59:42.872Z,1014.45
2017-01-03T05:00:23.332Z,1014.53
2017-01-03T05:01:04.015Z,1014.47
2017-01-03T05:01:44.471Z,1014.48
2017-01-03T05:02:24.983Z,1014.45
2017-01-03T05:03:05.451Z,1014.5
2017-01-03T05:03:45.924Z,1014.55
2017-01-03T05:04:26.430Z,1014.54
2017-01-03T05:05:06.819Z,1014.55
2017-01-03T05:05:47.313Z,1014.63
2017-01-03T05:06:27.807Z,1014.53
2017-01-03T05:07:08.334Z,1014.59
2017-01-03T05:07:48.789Z,1014.61
2017-01-03T05:08:29.297Z,1014.55
2017-01-03T05:09:09.759Z,1014.58
2017-01-03T05:09:50.298Z,1014.61
2017-01-03T05:10:30.756Z,1014.6
2017-01-03T05:11:11.199Z,1014.6
2017-01-03T05:11:51.733Z,1014.57
2017-01-03T05:12:32.191Z,1014.63
2017-01-03T05:13:12.705Z,1014.62
2017-01-03T05:13:53.180Z,1014.69
2017-01-03T05:14:33.667Z,1014.61
2017-01-03T05:15:14.275Z,1014.59
2017-01-03T05:15:54.751Z,1014.62
2017-01-03T05:16:35.256Z,1014.64
2017-01-03T05:17:15.714Z,1014.65
2017-01-03T05:17:56.170Z,1014.7
2017-01-03T05:18:36.647Z,1014.76
2017-01-03T05:19:17.115Z,1014.69
2017-01-03T05:19:57.611Z,1014.67
2017-01-03T05:20:38.116Z,1014.64
2017-01-03T05:21:18.624Z,1014.73
2017-01-03T05:21:59.101Z,1014.64
2017-01-03T05:22:39.579Z,1014.69
2017-01-03T05:23:20.086Z,1014.66
2017-01-03T05:24:00.561Z,1014.65
2017-01-03T05:24:41.044Z,1014.67
2017-01-03T05:25:21.523Z,1014.65
2017-01-03T05:26:02.047Z,1014.68
2017-01-03T05:26:42.460Z,1014.69
2017-01-03T05:27:23.037Z,1014.71
2017-01-03T05:28:03.454Z,1014.69
2017-01-03T05:28:43.976Z,1014.71
2017-01-03T05:29:24.543Z,1014.73
2017-01-03T05:30:05.004Z,1014.74
2017-01-03T05:30:45.471Z,1014.76
2017-01-03T05:31:25.962Z,1014.75
2017-01-03T05:32:06.451Z,1014.72
2017-01-03T05:32:46.906Z,1014.74
2017-01-03T05:33:27.410Z,1014.76
2017-01-03T05:34:07.940Z,1014.78
2017-01-03T05:34:48.365Z,1014.76
2017-01-03T05:35:28.895Z,1014.83
2017-01-03T05:36:09.381Z,1014.82
2017-01-03T05:36:49.864Z,1014.84
2017-01-03T05:37:30.415Z,1014.87
2017-01-03T05:38:10.892Z,1014.83
2017-01-03T05:38:51.421Z,1014.83
2017-01-03T05:39:31.917Z,1014.83
2017-01-03T05:40:12.410Z,1014.78
2017-01-03T05:40:52.930Z,1014.84
2017-01-03T05:41:33.354Z,1014.85
2017-01-03T05:42:13.934Z,1014.82
2017-01-03T05:42:54.353Z,1014.87
2017-01-03T05:43:34.938Z,1014.85
2017-01-03T05:44:15.362Z,1014.84
2017-01-03T05:44:55.826Z,1014.81
2017-01-03T05:45:36.325Z,1014.88
2017-01-03T05:46:16.837Z,1014.81
2017-01-03T05:48:45.264Z,1014.84
2017-01-03T05:49:25.742Z,1014.81
2017-01-03T05:50:06.339Z,1014.83
2017-01-03T05:50:46.782Z,1014.83
2017-01-03T05:51:27.238Z,1014.87
2017-01-03T05:52:07.805Z,1014.85
2017-01-03T05:52:48.246Z,1014.84
2017-01-03T05:53:28.747Z,1014.86
2017-01-03T05:54:09.228Z,1014.89
2017-01-03T05:54:49.655Z,1014.9
2017-01-03T05:55:30.179Z,1014.88
2017-01-03T05:56:10.691Z,1014.86
2017-01-03T05:56:51.225Z,1014.81
2017-01-03T05:57:31.698Z,1014.88
2017-01-03T05:58:12.143Z,1014.86
2017-01-03T05:58:52.710Z,1014.83
2017-01-03T05:59:33.160Z,1014.86
2017-01-03T06:00:13.630Z,1014.84
2017-01-03T06:00:54.127Z,1014.85
2017-01-03T06:01:34.580Z,1014.85
2017-01-03T06:02:15.171Z,1014.85
2017-01-03T06:02:55.672Z,1014.89
2017-01-03T06:03:36.192Z,1014.89
2017-01-03T06:04:16.669Z,1014.88
2017-01-03T06:04:57.196Z,1014.91
2017-01-03T06:05:37.672Z,1014.9
2017-01-03T06:06:18.213Z,1014.87
2017-01-03T06:06:58.675Z,1014.87
2017-01-03T06:07:39.134Z,1014.87
2017-01-03T06:08:19.628Z,1014.86
2017-01-03T06:09:00.113Z,1014.92
2017-01-03T06:09:40.598Z,1014.89
2017-01-03T06:10:21.108Z,1014.91
2017-01-03T06:11:01.609Z,1014.92
2017-01-03T06:11:42.361Z,1014.9
2017-01-03T06:12:22.831Z,1014.89
2017-01-03T06:13:03.291Z,1014.94
2017-01-03T06:13:43.763Z,1014.95
2017-01-03T06:14:24.283Z,1014.97
2017-01-03T06:15:04.793Z,1014.95
2017-01-03T06:15:45.275Z,1014.97
2017-01-03T06:16:25.766Z,1015
2017-01-03T06:17:06.216Z,1015.02
2017-01-03T06:17:46.703Z,1015.02
2017-01-03T06:18:27.217Z,1014.98
2017-01-03T06:19:07.769Z,1015.01
2017-01-03T06:19:48.221Z,1014.99
2017-01-03T06:20:28.706Z,1015.02
2017-01-03T06:21:09.185Z,1015
2017-01-03T06:21:49.739Z,1015.03
2017-01-03T06:22:30.297Z,1015.11
2017-01-03T06:23:10.786Z,1015.04
2017-01-03T06:23:51.260Z,1015.11
2017-01-03T06:24:31.744Z,1015.13
2017-01-03T06:25:12.342Z,1015.08
2017-01-03T06:25:52.791Z,1015.11
2017-01-03T06:26:33.315Z,1015.12
2017-01-03T06:27:13.783Z,1015.13
2017-01-03T06:27:54.254Z,1015.13
2017-01-03T06:28:34.726Z,1015.19
2017-01-03T06:29:15.252Z,1015.12
2017-01-03T06:29:55.722Z,1015.16
2017-01-03T06:30:36.232Z,1015.08
2017-01-03T06:31:16.711Z,1015.04
2017-01-03T06:31:57.201Z,1015.06
2017-01-03T06:32:37.669Z,1015.09
2017-01-03T06:33:18.126Z,1015.05
2017-01-03T06:33:58.622Z,1015.08
2017-01-03T06:34:39.086Z,1015.08
2017-01-03T06:35:19.589Z,1015.03
2017-01-03T06:36:00.089Z,1015.02
2017-01-03T06:36:40.577Z,1015.01
2017-01-03T06:37:21.045Z,1015.08
2017-01-03T06:38:01.528Z,1015.03
2017-01-03T06:38:42.055Z,1015.07
2017-01-03T06:39:22.546Z,1015.07
2017-01-03T06:40:03.080Z,1015.03
2017-01-03T06:40:43.513Z,1014.98
2017-01-03T06:41:24.003Z,1015.02
2017-01-03T06:42:04.507Z,1015.01
2017-01-03T06:42:45.013Z,1015.01
2017-01-03T06:43:25.507Z,1015.02
2017-01-03T06:44:06.022Z,1015
2017-01-03T06:44:46.546Z,1015.03
2017-01-03T06:45:27.003Z,1015
2017-01-03T06:46:07.512Z,1015.02
2017-01-03T06:46:47.972Z,1015
2017-01-03T06:47:28.544Z,1015.01
2017-01-03T06:48:10.694Z,1015.06
2017-01-03T06:48:51.204Z,1015.03
2017-01-03T06:49:31.685Z,1015
2017-01-03T06:50:12.206Z,1015.04
2017-01-03T06:50:52.688Z,1015.04
2017-01-03T06:51:33.194Z,1015.01
2017-01-03T06:52:13.900Z,1015.04
2017-01-03T06:52:54.343Z,1015.05
2017-01-03T06:53:34.953Z,1015.06
2017-01-03T06:54:15.438Z,1015.04
2017-01-03T06:54:55.945Z,1015.08
2017-01-03T06:55:36.407Z,1015.02
2017-01-03T06:56:16.949Z,1015.04
2017-01-03T06:56:57.452Z,1015.02
2017-01-03T06:57:37.924Z,1015.02
2017-01-03T06:58:18.408Z,1014.96
2017-01-03T06:58:58.883Z,1015
2017-01-03T06:59:41.834Z,1015.02
2017-01-03T07:00:22.350Z,1014.98
2017-01-03T07:01:02.819Z,1015.08
2017-01-03T07:01:43.344Z,1015.01
2017-01-03T07:02:23.826Z,1015.08
2017-01-03T07:03:04.379Z,1015.09
2017-01-03T07:03:44.892Z,1015.11
2017-01-03T07:04:25.395Z,1015.14
2017-01-03T07:05:05.869Z,1015.16
2017-01-03T07:05:46.375Z,1015.14
2017-01-03T07:06:26.859Z,1015.15
2017-01-03T07:07:07.315Z,1015.14
2017-01-03T07:07:47.839Z,1015.15
2017-01-03T07:08:28.287Z,1015.15
2017-01-03T07:09:08.823Z,1015.14
2017-01-03T07:09:49.272Z,1015.09
2017-01-03T07:10:29.792Z,1015.12
2017-01-03T07:11:10.248Z,1015.11
2017-01-03T07:11:50.773Z,1015.15
2017-01-03T07:12:31.293Z,1015.15
2017-01-03T07:13:11.774Z,1015.1
2017-01-03T07:13:52.236Z,1015.07
2017-01-03T07:14:32.769Z,1015.09
2017-01-03T07:15:13.242Z,1015.06
2017-01-03T07:15:53.728Z,1015.05
2017-01-03T07:16:34.216Z,1015.08
2017-01-03T07:17:14.881Z,1015.07
2017-01-03T07:17:55.434Z,1015.09
2017-01-03T07:18:35.913Z,1015.03
2017-01-03T07:19:16.380Z,1015.03
2017-01-03T07:19:56.916Z,1015.07
2017-01-03T07:20:37.376Z,1015.05
2017-01-03T07:21:17.842Z,1015.04
2017-01-03T07:21:58.326Z,1015.04
2017-01-03T07:22:38.803Z,1015.03
2017-01-03T07:23:19.269Z,1015.01
2017-01-03T07:23:59.755Z,1015.08
2017-01-03T07:24:40.248Z,1015.09
2017-01-03T07:25:20.727Z,1015.11
2017-01-03T07:26:01.174Z,1015.11
2017-01-03T07:26:41.655Z,1015.13
2017-01-03T07:27:22.181Z,1015.1
2017-01-03T07:28:02.608Z,1015.06
2017-01-03T07:28:43.109Z,1015.08
2017-01-03T07:29:23.607Z,1015.03
2017-01-03T07:30:04.246Z,1015.02
2017-01-03T07:30:44.588Z,1015.05
2017-01-03T07:31:25.056Z,1015.03
2017-01-03T07:32:05.648Z,1015.1
2017-01-03T07:32:46.100Z,1015.1
2017-01-03T07:33:26.604Z,1015.03
2017-01-03T07:34:07.146Z,1015.05
2017-01-03T07:34:47.597Z,1015.01
2017-01-03T07:35:28.094Z,1015.04
2017-01-03T07:36:08.711Z,1014.99
2017-01-03T07:36:49.150Z,1015.08
2017-01-03T07:37:29.657Z,1015.09
2017-01-03T07:38:10.201Z,1015.09
2017-01-03T07:38:50.786Z,1015.1
2017-01-03T07:39:31.251Z,1015.07
2017-01-03T07:40:11.717Z,1015.06
2017-01-03T07:40:52.242Z,1015.11
2017-01-03T07:41:32.706Z,1015.06
2017-01-03T07:42:13.189Z,1015.08
2017-01-03T07:42:53.805Z,1015.09
2017-01-03T07:43:34.654Z,1015.07
2017-01-03T07:44:14.901Z,1015.08
2017-01-03T07:44:55.358Z,1015.07
2017-01-03T07:45:35.938Z,1015.11
2017-01-03T07:46:16.351Z,1015
2017-01-03T07:46:56.830Z,1015.06
2017-01-03T07:47:39.033Z,1015.01
2017-01-03T07:48:37.404Z,1015.01
2017-01-03T07:51:07.870Z,1015.01
2017-01-03T07:52:54.990Z,1015.06
2017-01-03T07:53:36.622Z,1015.02
2017-01-03T07:54:17.175Z,1015.08
2017-01-03T07:54:57.646Z,1015.1
2017-01-03T07:55:38.154Z,1015.12
2017-01-03T07:56:18.648Z,1015.15
2017-01-03T07:56:59.156Z,1015.12
2017-01-03T07:57:39.610Z,1015.13
2017-01-03T07:58:20.094Z,1015.18
2017-01-03T07:59:00.575Z,1015.16
2017-01-03T07:59:41.074Z,1015.2
2017-01-03T08:00:21.753Z,1015.19
2017-01-03T08:01:02.286Z,1015.21
2017-01-03T08:01:42.713Z,1015.22
2017-01-03T08:02:23.235Z,1015.24
2017-01-03T08:03:03.710Z,1015.28
2017-01-03T08:03:44.186Z,1015.31
2017-01-03T08:04:24.669Z,1015.32
2017-01-03T08:05:05.176Z,1015.34
2017-01-03T08:05:45.788Z,1015.33
2017-01-03T08:06:26.240Z,1015.32
2017-01-03T08:07:06.762Z,1015.38
2017-01-03T08:07:47.350Z,1015.32
2017-01-03T08:08:27.755Z,1015.39
2017-01-03T08:09:08.246Z,1015.41
2017-01-03T08:09:48.705Z,1015.39
2017-01-03T08:10:29.236Z,1015.38
2017-01-03T08:11:09.709Z,1015.4
2017-01-03T08:11:50.178Z,1015.4
2017-01-03T08:12:30.698Z,1015.42
2017-01-03T08:13:11.183Z,1015.48
2017-01-03T08:13:51.674Z,1015.44
2017-01-03T08:14:32.277Z,1015.52
2017-01-03T08:15:12.697Z,1015.51
2017-01-03T08:15:53.150Z,1015.54
2017-01-03T08:16:33.627Z,1015.54
2017-01-03T08:17:14.147Z,1015.56
2017-01-03T08:17:54.631Z,1015.59
2017-01-03T08:18:35.101Z,1015.55
2017-01-03T08:19:15.705Z,1015.6
2017-01-03T08:19:56.367Z,1015.59
2017-01-03T08:20:36.780Z,1015.56
2017-01-03T08:21:18.244Z,1015.6
2017-01-03T08:21:58.742Z,1015.56